Strona główna
METAR-TAF:

METAR-TAF

Lotnisko :

Port lotniczy Beauvais-Tillé

Beauvais, Francja

Szerokość geograficzna: 49-28N, Długość geograficzna: 002-07E, wysokość: 109 m

Aktualna obserwacja pogody

Raport powstał 22 minut temu, godzina 06:30 UTC
Wiatr 2 kt z kierunków zmiennych
Temperatura 17°C
Wilgotność 63%
Ciśnienie 1020 hPa
Widzialność 10 km lub więcej
Brak chmur poniżej 1500 m i brak chmur cumulonimbus

METAR: LFOB 010630Z AUTO VRB02KT CAVOK 17/10 Q1020 NOSIG

czas: 08:52 (06:52 UTC)

Prognoza

Raport powstał 1 godzina i 52 minut temu, godzina 05:00 UTC
Prognoza ważna od 01 godzina 06 UTC do 02 godzina 06 UTC
Wiatr 5 kt od północny wschód
Widzialność 10 km lub więcej
Brak chmur poniżej 1500 m i brak chmur cumulonimbus
Stopniowe zmiany
od 01 godzina 08 UTC do 01 godzina 10 UTC
Wiatr 10 kt od wschód
Stopniowe zmiany
od 01 godzina 18 UTC do 01 godzina 20 UTC
Wiatr 5 kt od północ

TAF: LFOB 010500Z 0106/0206 04005KT CAVOK BECMG 0108/0110 10010KT BECMG 0118/0120 36005KT

Obserwacja i prognoza pogody dla ponad 4000 lotnisk (raport METAR i TAF).

Dostępne stacje oznaczono żółtymi i czerwonymi punktami na mapie.

Najedź kursorem aby zobaczyć nazwę stacji.

Kliknij aby zobaczyć obserwacje i prognozy pogody.

Aby zmienić mapę: kliknij na zielony przycisk z czarnym krzyżykiem, aby powiększyć; na zielony przycisk z myślnikiem, aby pomniejszyć; na zielone strzałki, aby przejść do map sąsiednich.


METAR-TAF: